createdAt,value
2022-10-27T00:01:05.419Z,24.30
2022-10-27T00:04:06.846Z,23.08
2022-10-27T00:07:08.331Z,22.98
2022-10-27T00:10:09.839Z,20.92
2022-10-27T00:13:13.343Z,20.38
2022-10-27T00:16:15.599Z,20.55
2022-10-27T00:19:16.963Z,24.58
2022-10-27T00:22:18.323Z,24.15
2022-10-27T00:25:19.671Z,23.70
2022-10-27T00:28:21.793Z,26.80
2022-10-27T00:31:23.678Z,24.27
2022-10-27T00:34:25.009Z,25.17
2022-10-27T00:37:28.217Z,25.35
2022-10-27T00:40:29.668Z,25.63
2022-10-27T00:43:32.605Z,22.92
2022-10-27T00:46:41.107Z,26.45
2022-10-27T00:49:49.436Z,21.83
2022-10-27T00:52:56.036Z,22.35
2022-10-27T00:55:57.385Z,24.90
2022-10-27T00:58:59.473Z,28.27
2022-10-27T01:02:00.975Z,22.42
2022-10-27T01:05:08.625Z,27.48
2022-10-27T01:08:10.289Z,25.98
2022-10-27T01:11:11.670Z,23.85
2022-10-27T01:14:13.062Z,26.50
2022-10-27T01:17:44.818Z,25.50
2022-10-27T01:21:28.488Z,22.52
2022-10-27T01:24:44.390Z,24.27
2022-10-27T01:28:31.001Z,23.95
2022-10-27T01:31:40.848Z,27.48
2022-10-27T01:34:53.182Z,25.05
2022-10-27T01:38:06.321Z,24.20
2022-10-27T01:41:24.439Z,23.40
2022-10-27T01:44:36.786Z,23.08
2022-10-27T01:47:38.915Z,22.77
2022-10-27T01:50:56.852Z,29.80
2022-10-27T01:54:04.112Z,22.80
2022-10-27T01:57:27.295Z,24.52
2022-10-27T02:00:32.328Z,25.05
2022-10-27T02:03:38.120Z,24.20
2022-10-27T02:06:52.075Z,24.02
2022-10-27T02:10:05.776Z,26.33
2022-10-27T02:13:08.212Z,25.77
2022-10-27T02:16:18.120Z,22.83
2022-10-27T02:19:21.005Z,23.77
2022-10-27T02:22:27.330Z,22.40
2022-10-27T02:25:36.428Z,29.00
2022-10-27T02:28:46.956Z,26.23
2022-10-27T02:31:51.593Z,25.15
2022-10-27T02:34:53.574Z,26.27
2022-10-27T02:37:57.896Z,23.88
2022-10-27T02:40:59.253Z,26.48
2022-10-27T02:44:00.576Z,23.60
2022-10-27T02:47:02.226Z,20.20
2022-10-27T02:50:03.825Z,24.88
2022-10-27T02:53:05.169Z,27.45
2022-10-27T02:56:06.762Z,24.80
2022-10-27T02:59:08.091Z,20.90
2022-10-27T03:02:09.796Z,25.58
2022-10-27T03:05:11.231Z,25.70
2022-10-27T03:08:12.590Z,27.95
2022-10-27T03:11:13.921Z,25.42
2022-10-27T03:14:15.289Z,26.38
2022-10-27T03:17:16.626Z,26.67
2022-10-27T03:20:17.987Z,24.15
2022-10-27T03:23:19.338Z,26.05
2022-10-27T03:26:20.731Z,26.75
2022-10-27T03:29:22.048Z,25.98
2022-10-27T03:32:23.444Z,24.52
2022-10-27T03:35:24.762Z,27.38
2022-10-27T03:38:26.224Z,30.67
2022-10-27T03:41:27.634Z,39.00
2022-10-27T03:44:28.986Z,25.42
2022-10-27T03:47:30.324Z,28.42
2022-10-27T03:50:32.331Z,23.00
2022-10-27T03:53:33.677Z,23.65
2022-10-27T03:56:35.033Z,24.08
2022-10-27T03:59:36.383Z,26.80
2022-10-27T04:02:37.747Z,27.77
2022-10-27T04:05:39.111Z,27.58
2022-10-27T04:08:40.456Z,24.75
2022-10-27T04:11:44.451Z,26.63
2022-10-27T04:14:46.212Z,27.88
2022-10-27T04:17:47.596Z,29.63
2022-10-27T04:20:48.928Z,26.73
2022-10-27T04:23:50.277Z,23.88
2022-10-27T04:26:51.653Z,24.98
2022-10-27T04:29:52.972Z,25.40
2022-10-27T04:32:54.345Z,29.65
2022-10-27T04:35:56.677Z,26.15
2022-10-27T04:38:58.150Z,28.33
2022-10-27T04:41:59.622Z,27.15
2022-10-27T04:45:00.989Z,29.23
2022-10-27T04:48:03.097Z,32.63
2022-10-27T04:51:04.539Z,29.25
2022-10-27T04:54:06.086Z,29.35
2022-10-27T04:57:07.426Z,32.42
2022-10-27T05:00:09.671Z,29.65
2022-10-27T05:03:11.058Z,29.48
2022-10-27T05:06:12.401Z,32.55
2022-10-27T05:09:13.782Z,30.52
2022-10-27T05:12:15.158Z,35.88
2022-10-27T05:15:16.991Z,32.25
2022-10-27T05:18:18.374Z,31.00
2022-10-27T05:21:19.747Z,33.22
2022-10-27T05:24:21.086Z,34.22
2022-10-27T05:27:22.431Z,33.08
2022-10-27T05:30:23.774Z,35.65
2022-10-27T05:33:26.671Z,34.42
2022-10-27T05:36:28.004Z,34.55
2022-10-27T05:39:29.339Z,27.42
2022-10-27T05:42:30.701Z,29.85
2022-10-27T05:45:32.095Z,32.00
2022-10-27T05:48:33.609Z,32.63
2022-10-27T05:51:34.945Z,31.38
2022-10-27T05:54:36.266Z,31.08
2022-10-27T05:57:37.610Z,30.67
2022-10-27T06:00:39.390Z,28.45
2022-10-27T06:03:40.742Z,35.35
2022-10-27T06:06:42.079Z,26.80
2022-10-27T06:09:43.424Z,33.47
2022-10-27T06:12:44.798Z,34.00
2022-10-27T06:15:46.332Z,34.85
2022-10-27T06:18:47.805Z,30.58
2022-10-27T06:21:49.136Z,32.85
2022-10-27T06:24:50.570Z,32.42
2022-10-27T06:27:52.075Z,34.97
2022-10-27T06:30:53.624Z,30.25
2022-10-27T06:33:54.962Z,35.70
2022-10-27T06:36:56.283Z,35.25
2022-10-27T06:39:57.667Z,30.65
2022-10-27T06:43:06.574Z,30.50
2022-10-27T06:46:08.799Z,34.55
2022-10-27T06:49:11.401Z,26.92
2022-10-27T06:52:14.552Z,29.20
2022-10-27T06:55:16.000Z,28.17
2022-10-27T06:58:17.336Z,30.73
2022-10-27T07:01:18.793Z,30.20
2022-10-27T07:04:20.260Z,30.52
2022-10-27T07:07:21.632Z,27.50
2022-10-27T07:10:23.053Z,31.55
2022-10-27T07:13:24.453Z,29.30
2022-10-27T07:16:25.773Z,33.25
2022-10-27T07:19:27.116Z,30.20
2022-10-27T07:22:28.461Z,28.17
2022-10-27T07:25:31.923Z,26.33
2022-10-27T07:28:33.673Z,25.88
2022-10-27T07:31:35.158Z,29.77
2022-10-27T07:34:36.502Z,29.27
2022-10-27T07:37:48.122Z,30.98
2022-10-27T07:40:49.534Z,26.20
2022-10-27T07:43:50.850Z,24.85
2022-10-27T07:46:53.133Z,26.98
2022-10-27T07:49:54.470Z,27.70
2022-10-27T07:52:56.864Z,26.02
2022-10-27T07:55:58.918Z,26.20
2022-10-27T07:59:00.299Z,22.42
2022-10-27T08:02:01.802Z,22.10
2022-10-27T08:05:03.370Z,24.83
2022-10-27T08:08:06.939Z,22.75
2022-10-27T08:11:08.252Z,30.17
2022-10-27T08:14:10.247Z,25.77
2022-10-27T08:17:11.700Z,27.20
2022-10-27T08:20:13.028Z,23.92
2022-10-27T08:23:17.017Z,26.60
2022-10-27T08:26:18.362Z,25.52
2022-10-27T08:29:19.699Z,25.10
2022-10-27T08:32:21.128Z,26.58
2022-10-27T08:35:23.385Z,23.10
2022-10-27T08:38:24.696Z,24.05
2022-10-27T08:41:38.352Z,24.88
2022-10-27T08:45:00.319Z,20.95
2022-10-27T08:48:01.885Z,21.58
2022-10-27T08:51:05.484Z,20.77
2022-10-27T08:54:07.180Z,16.25
2022-10-27T08:57:13.114Z,16.55
2022-10-27T09:00:15.098Z,18.98
2022-10-27T09:03:36.461Z,14.85
2022-10-27T09:07:09.964Z,16.80
2022-10-27T09:10:49.057Z,13.43
2022-10-27T09:14:22.319Z,15.52
2022-10-27T09:17:28.324Z,14.65
2022-10-27T09:20:36.732Z,13.38
2022-10-27T09:23:43.827Z,13.00
2022-10-27T09:26:47.987Z,11.27
2022-10-27T09:29:51.768Z,10.50
2022-10-27T09:32:56.053Z,13.65
2022-10-27T09:35:58.131Z,12.38
2022-10-27T09:38:59.470Z,17.45
2022-10-27T09:42:00.826Z,11.40
2022-10-27T09:45:04.027Z,10.65
2022-10-27T09:48:10.190Z,11.07
2022-10-27T09:51:23.318Z,9.65
2022-10-27T09:54:55.738Z,9.43
2022-10-27T09:58:02.318Z,8.85
2022-10-27T10:01:03.867Z,10.65
2022-10-27T10:04:28.985Z,10.85
2022-10-27T10:07:40.138Z,9.55
2022-10-27T10:10:59.996Z,10.52
2022-10-27T10:14:01.604Z,8.75
2022-10-27T10:17:02.994Z,8.88
2022-10-27T10:20:06.417Z,8.48
2022-10-27T10:23:20.508Z,11.30
2022-10-27T10:26:24.753Z,9.55
2022-10-27T10:29:45.486Z,8.20
2022-10-27T10:32:54.098Z,8.98
2022-10-27T10:35:55.902Z,7.75
2022-10-27T10:38:59.327Z,7.75
2022-10-27T10:42:09.853Z,8.77
2022-10-27T10:45:22.984Z,6.85
2022-10-27T10:48:27.281Z,7.88
2022-10-27T10:51:32.381Z,12.10
2022-10-27T10:54:40.272Z,8.75
2022-10-27T10:57:44.133Z,9.15
2022-10-27T11:00:54.953Z,10.65
2022-10-27T11:03:57.090Z,10.30
2022-10-27T11:07:14.913Z,6.63
2022-10-27T11:10:21.001Z,9.55
2022-10-27T11:13:38.758Z,7.57
2022-10-27T11:17:00.770Z,8.32
2022-10-27T11:20:05.206Z,5.68
2022-10-27T11:23:17.846Z,8.05
2022-10-27T11:26:32.883Z,6.90
2022-10-27T11:30:01.912Z,7.05
2022-10-27T11:33:25.503Z,4.70
2022-10-27T11:36:49.441Z,10.27
2022-10-27T11:40:01.507Z,5.15
2022-10-27T11:43:15.095Z,7.50
2022-10-27T11:46:25.749Z,4.82
2022-10-27T11:49:37.038Z,5.97
2022-10-27T11:52:52.488Z,7.72
2022-10-27T11:56:15.472Z,8.23
2022-10-27T11:59:39.129Z,5.40
2022-10-27T12:03:02.335Z,4.57
2022-10-27T12:06:16.239Z,4.50
2022-10-27T12:09:34.846Z,9.65
2022-10-27T12:12:47.268Z,5.97
2022-10-27T12:15:59.904Z,4.13
2022-10-27T12:19:05.595Z,4.97
2022-10-27T12:22:27.154Z,7.57
2022-10-27T12:25:35.940Z,5.10
2022-10-27T12:28:37.480Z,4.57
2022-10-27T12:31:44.893Z,5.82
2022-10-27T12:34:57.143Z,5.55
2022-10-27T12:38:18.280Z,8.85
2022-10-27T12:41:31.188Z,3.88
2022-10-27T12:44:41.575Z,5.03
2022-10-27T12:48:08.865Z,6.50
2022-10-27T12:51:40.089Z,5.25
2022-10-27T12:55:12.773Z,5.43
2022-10-27T12:58:20.073Z,5.33
2022-10-27T13:01:53.735Z,5.22
2022-10-27T13:05:21.209Z,3.92
2022-10-27T13:08:25.581Z,7.15
2022-10-27T13:12:04.296Z,5.25
2022-10-27T13:15:11.598Z,4.22
2022-10-27T13:18:25.408Z,6.65
2022-10-27T13:21:29.740Z,6.30
2022-10-27T13:24:37.258Z,4.25
2022-10-27T13:27:38.530Z,2.67
2022-10-27T13:30:43.462Z,3.00
2022-10-27T13:34:07.849Z,6.13
2022-10-27T13:37:43.062Z,4.90
2022-10-27T13:40:44.439Z,2.72
2022-10-27T13:43:46.616Z,6.15
2022-10-27T13:47:04.547Z,7.88
2022-10-27T13:50:32.127Z,3.92
2022-10-27T13:53:33.497Z,4.05
2022-10-27T13:56:37.562Z,3.05
2022-10-27T13:59:39.287Z,3.03
2022-10-27T14:02:53.083Z,6.75
2022-10-27T14:05:55.048Z,4.05
2022-10-27T14:09:00.184Z,5.38
2022-10-27T14:12:15.176Z,3.92
2022-10-27T14:15:22.408Z,3.50
2022-10-27T14:18:32.551Z,3.97
2022-10-27T14:21:39.791Z,5.60
2022-10-27T14:24:56.553Z,8.35
2022-10-27T14:28:15.399Z,2.90
2022-10-27T14:31:19.915Z,7.00
2022-10-27T14:34:26.388Z,6.10
2022-10-27T14:37:30.375Z,3.97
2022-10-27T14:40:37.698Z,5.25
2022-10-27T14:43:41.484Z,4.53
2022-10-27T14:46:46.081Z,3.47
2022-10-27T14:49:50.945Z,10.45
2022-10-27T14:52:56.587Z,4.55
2022-10-27T14:56:28.148Z,4.10
2022-10-27T14:59:29.497Z,5.32
2022-10-27T15:02:30.978Z,4.50
2022-10-27T15:05:37.963Z,4.85
2022-10-27T15:08:43.833Z,8.13
2022-10-27T15:11:46.533Z,5.45
2022-10-27T15:14:48.355Z,6.65
2022-10-27T15:17:50.001Z,5.78
2022-10-27T15:20:52.114Z,4.88
2022-10-27T15:24:00.894Z,3.85
2022-10-27T15:27:04.090Z,6.13
2022-10-27T15:30:06.284Z,6.50
2022-10-27T15:33:26.126Z,7.63
2022-10-27T15:36:27.586Z,3.60
2022-10-27T15:39:28.934Z,8.35
2022-10-27T15:42:37.088Z,8.50
2022-10-27T15:45:43.179Z,6.57
2022-10-27T15:48:48.075Z,8.55
2022-10-27T15:51:56.833Z,5.95
2022-10-27T15:54:58.192Z,7.07
2022-10-27T15:58:25.457Z,6.38
2022-10-27T16:01:34.734Z,5.85
2022-10-27T16:04:38.568Z,5.65
2022-10-27T16:07:39.926Z,9.40
2022-10-27T16:10:41.516Z,4.28
2022-10-27T16:13:46.088Z,7.60
2022-10-27T16:16:47.452Z,6.55
2022-10-27T16:19:50.392Z,5.47
2022-10-27T16:22:52.022Z,6.68
2022-10-27T16:25:53.797Z,6.47
2022-10-27T16:29:00.642Z,5.80
2022-10-27T16:32:02.368Z,6.60
2022-10-27T16:35:04.022Z,7.40
2022-10-27T16:38:05.734Z,5.32
2022-10-27T16:41:14.506Z,6.03
2022-10-27T16:44:15.850Z,7.88
2022-10-27T16:47:18.385Z,8.50
2022-10-27T16:50:20.610Z,12.15
2022-10-27T16:53:22.048Z,7.43
2022-10-27T16:56:23.431Z,7.82
2022-10-27T16:59:24.846Z,6.00
2022-10-27T17:02:26.292Z,5.57
2022-10-27T17:05:27.684Z,5.68
2022-10-27T17:08:31.290Z,6.10
2022-10-27T17:11:35.543Z,6.30
2022-10-27T17:14:36.872Z,6.97
2022-10-27T17:17:38.204Z,6.75
2022-10-27T17:20:42.542Z,6.90
2022-10-27T17:23:43.957Z,7.90
2022-10-27T17:26:45.277Z,8.98
2022-10-27T17:29:46.605Z,5.65
2022-10-27T17:32:47.953Z,8.32
2022-10-27T17:36:00.697Z,7.63
2022-10-27T17:39:02.167Z,4.20
2022-10-27T17:42:03.640Z,5.47
2022-10-27T17:45:07.074Z,6.93
2022-10-27T17:48:08.428Z,6.72
2022-10-27T17:51:15.172Z,7.13
2022-10-27T17:54:16.493Z,4.75
2022-10-27T17:57:18.478Z,6.68
2022-10-27T18:00:20.148Z,4.30
2022-10-27T18:03:23.740Z,3.22
2022-10-27T18:06:27.001Z,3.50
2022-10-27T18:09:28.324Z,5.50
2022-10-27T18:12:29.668Z,5.03
2022-10-27T18:15:35.773Z,4.30
2022-10-27T18:18:38.673Z,7.03
2022-10-27T18:21:42.627Z,8.15
2022-10-27T18:24:43.974Z,7.43
2022-10-27T18:27:45.315Z,4.13
2022-10-27T18:30:46.651Z,7.00
2022-10-27T18:33:48.045Z,5.95
2022-10-27T18:36:49.506Z,4.38
2022-10-27T18:39:50.837Z,7.65
2022-10-27T18:42:54.036Z,4.03
2022-10-27T18:46:06.781Z,3.42
2022-10-27T18:49:15.626Z,8.70
2022-10-27T18:52:17.735Z,7.85
2022-10-27T18:55:19.097Z,4.88
2022-10-27T18:58:20.438Z,6.00
2022-10-27T19:01:23.233Z,5.68
2022-10-27T19:04:24.766Z,4.85
2022-10-27T19:07:28.947Z,6.22
2022-10-27T19:10:31.495Z,9.98
2022-10-27T19:13:34.003Z,6.40
2022-10-27T19:16:35.374Z,4.40
2022-10-27T19:19:36.710Z,6.90
2022-10-27T19:22:38.078Z,7.28
2022-10-27T19:25:39.444Z,6.65
2022-10-27T19:28:42.205Z,7.80
2022-10-27T19:31:43.689Z,4.43
2022-10-27T19:34:47.630Z,5.35
2022-10-27T19:37:51.605Z,5.47
2022-10-27T19:40:53.223Z,6.45
2022-10-27T19:43:55.997Z,7.07
2022-10-27T19:46:57.487Z,6.07
2022-10-27T19:49:59.007Z,9.25
2022-10-27T19:53:00.344Z,10.68
2022-10-27T19:56:01.780Z,5.75
2022-10-27T19:59:03.589Z,6.95
2022-10-27T20:02:06.257Z,6.53
2022-10-27T20:05:07.889Z,7.13
2022-10-27T20:08:09.253Z,6.65
2022-10-27T20:11:14.290Z,9.48
2022-10-27T20:14:16.196Z,6.10
2022-10-27T20:17:17.581Z,6.88
2022-10-27T20:20:18.957Z,8.02
2022-10-27T20:23:20.335Z,7.32
2022-10-27T20:26:29.068Z,8.07
2022-10-27T20:29:35.176Z,10.38
2022-10-27T20:32:41.336Z,8.85
2022-10-27T20:35:44.979Z,7.80
2022-10-27T20:38:46.413Z,6.78
2022-10-27T20:41:47.959Z,6.10
2022-10-27T20:44:49.308Z,8.13
2022-10-27T20:47:50.738Z,7.72
2022-10-27T20:51:00.706Z,9.10
2022-10-27T20:54:02.141Z,8.10
2022-10-27T20:57:03.531Z,4.68
2022-10-27T21:00:05.606Z,7.10
2022-10-27T21:03:07.042Z,6.88
2022-10-27T21:06:08.450Z,7.82
2022-10-27T21:09:12.505Z,6.78
2022-10-27T21:12:13.859Z,5.47
2022-10-27T21:15:15.236Z,7.75
2022-10-27T21:18:16.607Z,7.18
2022-10-27T21:21:19.067Z,8.70
2022-10-27T21:24:20.504Z,5.50
2022-10-27T21:27:21.852Z,8.70
2022-10-27T21:33:30.855Z,9.15
2022-10-27T21:36:32.851Z,8.20
2022-10-27T21:39:34.205Z,8.73
2022-10-27T21:42:35.641Z,7.05
2022-10-27T21:45:36.984Z,8.18
2022-10-27T21:48:38.348Z,8.98
2022-10-27T21:51:39.900Z,8.15
2022-10-27T21:54:41.225Z,5.65
2022-10-27T21:57:42.540Z,9.77
2022-10-27T22:00:43.893Z,8.68
2022-10-27T22:03:45.813Z,7.47
2022-10-27T22:06:47.141Z,11.35
2022-10-27T22:09:48.485Z,6.18
2022-10-27T22:12:50.215Z,8.52
2022-10-27T22:15:51.805Z,10.55
2022-10-27T22:19:01.539Z,7.15
2022-10-27T22:25:09.982Z,7.10
2022-10-27T22:28:11.301Z,5.40
2022-10-27T22:31:25.397Z,5.43
2022-10-27T22:34:26.796Z,5.85
2022-10-27T22:37:28.210Z,8.20
2022-10-27T22:40:29.553Z,7.30
2022-10-27T22:43:31.234Z,6.28
2022-10-27T22:46:33.574Z,6.50
2022-10-27T22:49:34.954Z,5.60
2022-10-27T22:52:36.307Z,7.20
2022-10-27T22:55:37.624Z,5.10
2022-10-27T22:58:39.551Z,7.05
2022-10-27T23:01:41.040Z,6.45
2022-10-27T23:04:42.487Z,6.18
2022-10-27T23:07:43.851Z,7.40
2022-10-27T23:10:45.184Z,8.25
2022-10-27T23:13:46.518Z,8.27
2022-10-27T23:16:47.871Z,8.00
2022-10-27T23:19:49.195Z,5.82
2022-10-27T23:22:51.012Z,9.50
2022-10-27T23:25:53.102Z,8.18
2022-10-27T23:28:59.165Z,5.05
2022-10-27T23:32:00.495Z,8.50
2022-10-27T23:35:01.832Z,9.50
2022-10-27T23:38:03.592Z,7.40
2022-10-27T23:41:05.185Z,9.23
2022-10-27T23:44:06.657Z,7.45
2022-10-27T23:47:08.008Z,8.85
2022-10-27T23:50:09.779Z,8.48
2022-10-27T23:53:11.435Z,6.55
2022-10-27T23:56:13.125Z,7.43
2022-10-27T23:59:14.459Z,8.07
